sensor_id;sensor_type;location;lat;lon;timestamp;P1;durP1;ratioP1;P2;durP2;ratioP2
56806;SDS011;42687;42.524;12.052;2023-05-21T00:01:40;3.42;;;2.05;;
56806;SDS011;42687;42.524;12.052;2023-05-21T00:04:06;2.97;;;1.98;;
56806;SDS011;42687;42.524;12.052;2023-05-21T00:06:32;3.50;;;2.22;;
56806;SDS011;42687;42.524;12.052;2023-05-21T00:09:00;2.88;;;1.90;;
56806;SDS011;42687;42.524;12.052;2023-05-21T00:11:27;2.63;;;1.70;;
56806;SDS011;42687;42.524;12.052;2023-05-21T00:13:53;3.00;;;1.95;;
56806;SDS011;42687;42.524;12.052;2023-05-21T00:16:19;3.38;;;1.88;;
56806;SDS011;42687;42.524;12.052;2023-05-21T00:18:45;3.78;;;2.70;;
56806;SDS011;42687;42.524;12.052;2023-05-21T00:21:14;4.57;;;2.67;;
56806;SDS011;42687;42.524;12.052;2023-05-21T00:23:47;3.95;;;2.58;;
56806;SDS011;42687;42.524;12.052;2023-05-21T00:26:14;5.50;;;2.28;;
56806;SDS011;42687;42.524;12.052;2023-05-21T00:28:40;4.22;;;2.38;;
56806;SDS011;42687;42.524;12.052;2023-05-21T00:31:05;4.70;;;2.90;;
56806;SDS011;42687;42.524;12.052;2023-05-21T00:33:31;6.85;;;2.47;;
56806;SDS011;42687;42.524;12.052;2023-05-21T00:35:57;3.55;;;1.88;;
56806;SDS011;42687;42.524;12.052;2023-05-21T00:38:22;5.60;;;2.85;;
56806;SDS011;42687;42.524;12.052;2023-05-21T00:40:48;5.40;;;3.33;;
56806;SDS011;42687;42.524;12.052;2023-05-21T00:43:15;4.43;;;3.08;;
56806;SDS011;42687;42.524;12.052;2023-05-21T00:45:41;6.97;;;3.50;;
56806;SDS011;42687;42.524;12.052;2023-05-21T00:48:11;7.28;;;3.03;;
56806;SDS011;42687;42.524;12.052;2023-05-21T00:50:39;6.03;;;3.80;;
56806;SDS011;42687;42.524;12.052;2023-05-21T00:53:06;4.65;;;3.42;;
56806;SDS011;42687;42.524;12.052;2023-05-21T00:55:36;6.65;;;4.07;;
56806;SDS011;42687;42.524;12.052;2023-05-21T00:58:02;5.07;;;3.10;;
56806;SDS011;42687;42.524;12.052;2023-05-21T01:00:35;9.15;;;3.65;;
56806;SDS011;42687;42.524;12.052;2023-05-21T01:03:04;6.93;;;3.13;;
56806;SDS011;42687;42.524;12.052;2023-05-21T01:05:30;7.28;;;3.38;;
56806;SDS011;42687;42.524;12.052;2023-05-21T01:07:57;5.88;;;3.90;;
56806;SDS011;42687;42.524;12.052;2023-05-21T01:10:24;4.38;;;3.40;;
56806;SDS011;42687;42.524;12.052;2023-05-21T01:12:51;5.95;;;3.40;;
56806;SDS011;42687;42.524;12.052;2023-05-21T01:15:17;6.05;;;4.30;;
56806;SDS011;42687;42.524;12.052;2023-05-21T01:17:43;6.13;;;2.85;;
56806;SDS011;42687;42.524;12.052;2023-05-21T01:20:10;5.50;;;3.58;;
56806;SDS011;42687;42.524;12.052;2023-05-21T01:22:39;4.85;;;4.20;;
56806;SDS011;42687;42.524;12.052;2023-05-21T01:25:08;5.40;;;3.53;;
56806;SDS011;42687;42.524;12.052;2023-05-21T01:27:35;4.93;;;3.17;;
56806;SDS011;42687;42.524;12.052;2023-05-21T01:30:01;5.63;;;3.72;;
56806;SDS011;42687;42.524;12.052;2023-05-21T01:35:10;5.20;;;3.37;;
56806;SDS011;42687;42.524;12.052;2023-05-21T01:38:04;7.18;;;4.38;;
56806;SDS011;42687;42.524;12.052;2023-05-21T01:41:03;6.28;;;3.83;;
56806;SDS011;42687;42.524;12.052;2023-05-21T01:43:38;3.88;;;2.38;;
56806;SDS011;42687;42.524;12.052;2023-05-21T01:46:09;6.35;;;4.63;;
56806;SDS011;42687;42.524;12.052;2023-05-21T01:48:39;6.45;;;5.65;;
56806;SDS011;42687;42.524;12.052;2023-05-21T01:51:06;4.05;;;2.60;;
56806;SDS011;42687;42.524;12.052;2023-05-21T01:53:32;5.38;;;3.45;;
56806;SDS011;42687;42.524;12.052;2023-05-21T01:55:57;5.05;;;3.72;;
56806;SDS011;42687;42.524;12.052;2023-05-21T01:58:23;5.78;;;2.97;;
56806;SDS011;42687;42.524;12.052;2023-05-21T02:00:49;7.90;;;4.70;;
56806;SDS011;42687;42.524;12.052;2023-05-21T02:03:15;8.85;;;3.85;;
56806;SDS011;42687;42.524;12.052;2023-05-21T02:05:42;4.30;;;2.85;;
56806;SDS011;42687;42.524;12.052;2023-05-21T02:08:08;6.18;;;3.22;;
56806;SDS011;42687;42.524;12.052;2023-05-21T02:10:34;7.70;;;4.05;;
56806;SDS011;42687;42.524;12.052;2023-05-21T02:13:00;5.10;;;3.70;;
56806;SDS011;42687;42.524;12.052;2023-05-21T02:15:26;7.93;;;3.53;;
56806;SDS011;42687;42.524;12.052;2023-05-21T02:17:52;8.65;;;3.25;;
56806;SDS011;42687;42.524;12.052;2023-05-21T02:20:17;5.97;;;4.28;;
56806;SDS011;42687;42.524;12.052;2023-05-21T02:22:44;6.15;;;5.03;;
56806;SDS011;42687;42.524;12.052;2023-05-21T02:25:12;7.40;;;4.20;;
56806;SDS011;42687;42.524;12.052;2023-05-21T02:27:40;4.68;;;3.15;;
56806;SDS011;42687;42.524;12.052;2023-05-21T02:30:08;5.72;;;3.38;;
56806;SDS011;42687;42.524;12.052;2023-05-21T02:32:36;8.65;;;4.15;;
56806;SDS011;42687;42.524;12.052;2023-05-21T02:35:02;5.07;;;3.85;;
56806;SDS011;42687;42.524;12.052;2023-05-21T02:37:29;8.10;;;3.95;;
56806;SDS011;42687;42.524;12.052;2023-05-21T02:39:59;6.93;;;4.68;;
56806;SDS011;42687;42.524;12.052;2023-05-21T02:42:26;4.63;;;4.00;;
56806;SDS011;42687;42.524;12.052;2023-05-21T02:44:52;5.00;;;3.00;;
56806;SDS011;42687;42.524;12.052;2023-05-21T02:47:18;4.97;;;3.83;;
56806;SDS011;42687;42.524;12.052;2023-05-21T02:49:45;5.78;;;3.78;;
56806;SDS011;42687;42.524;12.052;2023-05-21T02:52:11;5.35;;;3.78;;
56806;SDS011;42687;42.524;12.052;2023-05-21T02:54:37;7.43;;;4.35;;
56806;SDS011;42687;42.524;12.052;2023-05-21T02:57:03;8.25;;;4.90;;
56806;SDS011;42687;42.524;12.052;2023-05-21T02:59:29;5.22;;;4.25;;
56806;SDS011;42687;42.524;12.052;2023-05-21T03:01:55;7.90;;;3.88;;
56806;SDS011;42687;42.524;12.052;2023-05-21T03:04:20;6.82;;;3.55;;
56806;SDS011;42687;42.524;12.052;2023-05-21T03:06:46;8.30;;;4.15;;
56806;SDS011;42687;42.524;12.052;2023-05-21T03:09:16;6.50;;;5.47;;
56806;SDS011;42687;42.524;12.052;2023-05-21T03:11:42;8.48;;;6.00;;
56806;SDS011;42687;42.524;12.052;2023-05-21T03:14:08;6.88;;;3.40;;
56806;SDS011;42687;42.524;12.052;2023-05-21T03:16:34;8.30;;;3.90;;
56806;SDS011;42687;42.524;12.052;2023-05-21T03:19:00;10.25;;;3.78;;
56806;SDS011;42687;42.524;12.052;2023-05-21T03:21:26;4.25;;;2.92;;
56806;SDS011;42687;42.524;12.052;2023-05-21T03:23:54;8.70;;;4.30;;
56806;SDS011;42687;42.524;12.052;2023-05-21T03:26:23;6.28;;;4.45;;
56806;SDS011;42687;42.524;12.052;2023-05-21T03:28:52;6.43;;;4.50;;
56806;SDS011;42687;42.524;12.052;2023-05-21T03:31:18;6.07;;;4.57;;
56806;SDS011;42687;42.524;12.052;2023-05-21T03:33:45;5.32;;;3.55;;
56806;SDS011;42687;42.524;12.052;2023-05-21T03:36:10;5.88;;;4.05;;
56806;SDS011;42687;42.524;12.052;2023-05-21T03:38:36;6.05;;;4.00;;
56806;SDS011;42687;42.524;12.052;2023-05-21T03:41:02;5.55;;;3.50;;
56806;SDS011;42687;42.524;12.052;2023-05-21T03:43:28;6.75;;;3.53;;
56806;SDS011;42687;42.524;12.052;2023-05-21T03:45:54;6.18;;;4.03;;
56806;SDS011;42687;42.524;12.052;2023-05-21T03:48:20;5.32;;;4.13;;
56806;SDS011;42687;42.524;12.052;2023-05-21T03:50:46;6.35;;;3.42;;
56806;SDS011;42687;42.524;12.052;2023-05-21T03:53:11;4.90;;;3.40;;
56806;SDS011;42687;42.524;12.052;2023-05-21T03:55:38;4.57;;;3.22;;
56806;SDS011;42687;42.524;12.052;2023-05-21T03:58:04;6.47;;;3.38;;
56806;SDS011;42687;42.524;12.052;2023-05-21T04:00:29;6.18;;;3.13;;
56806;SDS011;42687;42.524;12.052;2023-05-21T04:02:57;5.22;;;2.83;;
56806;SDS011;42687;42.524;12.052;2023-05-21T04:05:23;5.05;;;3.28;;
56806;SDS011;42687;42.524;12.052;2023-05-21T04:07:48;5.43;;;3.58;;
56806;SDS011;42687;42.524;12.052;2023-05-21T04:10:14;5.93;;;3.97;;
56806;SDS011;42687;42.524;12.052;2023-05-21T04:12:40;6.05;;;3.75;;
56806;SDS011;42687;42.524;12.052;2023-05-21T04:15:06;4.30;;;2.63;;
56806;SDS011;42687;42.524;12.052;2023-05-21T04:17:32;4.65;;;2.63;;
56806;SDS011;42687;42.524;12.052;2023-05-21T04:19:59;4.25;;;2.33;;
56806;SDS011;42687;42.524;12.052;2023-05-21T04:22:26;6.30;;;3.10;;
56806;SDS011;42687;42.524;12.052;2023-05-21T04:24:52;5.55;;;3.63;;
56806;SDS011;42687;42.524;12.052;2023-05-21T04:27:22;7.15;;;2.60;;
56806;SDS011;42687;42.524;12.052;2023-05-21T04:29:51;6.22;;;3.03;;
56806;SDS011;42687;42.524;12.052;2023-05-21T04:32:22;4.05;;;2.40;;
56806;SDS011;42687;42.524;12.052;2023-05-21T04:34:48;6.32;;;3.38;;
56806;SDS011;42687;42.524;12.052;2023-05-21T04:37:14;6.13;;;2.95;;
56806;SDS011;42687;42.524;12.052;2023-05-21T04:39:42;6.95;;;3.20;;
56806;SDS011;42687;42.524;12.052;2023-05-21T04:42:08;4.05;;;2.45;;
56806;SDS011;42687;42.524;12.052;2023-05-21T04:44:35;5.18;;;2.80;;
56806;SDS011;42687;42.524;12.052;2023-05-21T04:47:02;5.63;;;3.65;;
56806;SDS011;42687;42.524;12.052;2023-05-21T04:49:28;7.07;;;4.50;;
56806;SDS011;42687;42.524;12.052;2023-05-21T04:51:54;6.22;;;3.75;;
56806;SDS011;42687;42.524;12.052;2023-05-21T04:54:20;3.65;;;2.47;;
56806;SDS011;42687;42.524;12.052;2023-05-21T04:56:46;6.43;;;3.92;;
56806;SDS011;42687;42.524;12.052;2023-05-21T04:59:12;3.90;;;2.33;;
56806;SDS011;42687;42.524;12.052;2023-05-21T05:01:38;4.45;;;3.22;;
56806;SDS011;42687;42.524;12.052;2023-05-21T05:04:04;8.10;;;3.03;;
56806;SDS011;42687;42.524;12.052;2023-05-21T05:06:30;5.28;;;3.30;;
56806;SDS011;42687;42.524;12.052;2023-05-21T05:08:56;6.63;;;4.13;;
56806;SDS011;42687;42.524;12.052;2023-05-21T05:11:21;4.88;;;2.78;;
56806;SDS011;42687;42.524;12.052;2023-05-21T05:13:47;6.30;;;3.63;;
56806;SDS011;42687;42.524;12.052;2023-05-21T05:16:12;4.75;;;3.10;;
56806;SDS011;42687;42.524;12.052;2023-05-21T05:18:43;5.22;;;2.65;;
56806;SDS011;42687;42.524;12.052;2023-05-21T05:21:09;4.72;;;2.63;;
56806;SDS011;42687;42.524;12.052;2023-05-21T05:23:35;3.25;;;2.53;;
56806;SDS011;42687;42.524;12.052;2023-05-21T05:26:00;3.60;;;2.63;;
56806;SDS011;42687;42.524;12.052;2023-05-21T05:28:26;4.65;;;3.17;;
56806;SDS011;42687;42.524;12.052;2023-05-21T05:30:52;6.47;;;2.92;;
56806;SDS011;42687;42.524;12.052;2023-05-21T05:33:17;4.47;;;3.25;;
56806;SDS011;42687;42.524;12.052;2023-05-21T05:35:43;7.82;;;3.35;;
56806;SDS011;42687;42.524;12.052;2023-05-21T05:38:09;5.82;;;2.70;;
56806;SDS011;42687;42.524;12.052;2023-05-21T05:40:35;5.15;;;3.58;;
56806;SDS011;42687;42.524;12.052;2023-05-21T05:43:00;4.00;;;2.28;;
56806;SDS011;42687;42.524;12.052;2023-05-21T05:45:26;5.90;;;2.70;;
56806;SDS011;42687;42.524;12.052;2023-05-21T05:47:52;3.50;;;2.40;;
56806;SDS011;42687;42.524;12.052;2023-05-21T05:50:17;4.40;;;2.90;;
56806;SDS011;42687;42.524;12.052;2023-05-21T05:52:43;6.32;;;2.75;;
56806;SDS011;42687;42.524;12.052;2023-05-21T05:55:09;6.22;;;3.42;;
56806;SDS011;42687;42.524;12.052;2023-05-21T05:57:36;3.58;;;2.25;;
56806;SDS011;42687;42.524;12.052;2023-05-21T06:00:02;4.38;;;3.25;;
56806;SDS011;42687;42.524;12.052;2023-05-21T06:02:29;6.60;;;3.03;;
56806;SDS011;42687;42.524;12.052;2023-05-21T06:04:54;8.75;;;2.60;;
56806;SDS011;42687;42.524;12.052;2023-05-21T06:07:20;4.22;;;2.83;;
56806;SDS011;42687;42.524;12.052;2023-05-21T06:09:46;3.55;;;2.42;;
56806;SDS011;42687;42.524;12.052;2023-05-21T06:12:11;3.90;;;2.38;;
56806;SDS011;42687;42.524;12.052;2023-05-21T06:14:40;3.90;;;2.88;;
56806;SDS011;42687;42.524;12.052;2023-05-21T06:17:07;3.75;;;2.20;;
56806;SDS011;42687;42.524;12.052;2023-05-21T06:19:33;5.43;;;3.80;;
56806;SDS011;42687;42.524;12.052;2023-05-21T06:21:58;4.20;;;2.22;;
56806;SDS011;42687;42.524;12.052;2023-05-21T06:24:24;3.33;;;2.83;;
56806;SDS011;42687;42.524;12.052;2023-05-21T06:26:50;5.00;;;1.58;;
56806;SDS011;42687;42.524;12.052;2023-05-21T06:29:15;4.50;;;3.08;;
56806;SDS011;42687;42.524;12.052;2023-05-21T06:31:42;8.30;;;4.00;;
56806;SDS011;42687;42.524;12.052;2023-05-21T06:34:08;7.15;;;3.17;;
56806;SDS011;42687;42.524;12.052;2023-05-21T06:36:35;7.53;;;2.92;;
56806;SDS011;42687;42.524;12.052;2023-05-21T06:39:01;3.55;;;2.65;;
56806;SDS011;42687;42.524;12.052;2023-05-21T06:41:27;4.60;;;2.55;;
56806;SDS011;42687;42.524;12.052;2023-05-21T06:43:53;5.55;;;2.67;;
56806;SDS011;42687;42.524;12.052;2023-05-21T06:46:19;6.25;;;3.67;;
56806;SDS011;42687;42.524;12.052;2023-05-21T06:48:45;3.55;;;2.78;;
56806;SDS011;42687;42.524;12.052;2023-05-21T06:51:11;4.90;;;3.50;;
56806;SDS011;42687;42.524;12.052;2023-05-21T06:53:37;4.38;;;2.78;;
56806;SDS011;42687;42.524;12.052;2023-05-21T06:56:03;3.42;;;2.67;;
56806;SDS011;42687;42.524;12.052;2023-05-21T06:58:29;3.88;;;2.80;;
56806;SDS011;42687;42.524;12.052;2023-05-21T07:00:56;5.43;;;2.63;;
56806;SDS011;42687;42.524;12.052;2023-05-21T07:03:22;4.80;;;2.90;;
56806;SDS011;42687;42.524;12.052;2023-05-21T07:05:48;4.18;;;2.88;;
56806;SDS011;42687;42.524;12.052;2023-05-21T07:08:14;3.75;;;2.25;;
56806;SDS011;42687;42.524;12.052;2023-05-21T07:10:39;7.43;;;2.85;;
56806;SDS011;42687;42.524;12.052;2023-05-21T07:13:06;4.30;;;2.80;;
56806;SDS011;42687;42.524;12.052;2023-05-21T07:15:32;4.10;;;2.70;;
56806;SDS011;42687;42.524;12.052;2023-05-21T07:17:58;3.88;;;2.88;;
56806;SDS011;42687;42.524;12.052;2023-05-21T07:20:24;4.10;;;2.97;;
56806;SDS011;42687;42.524;12.052;2023-05-21T07:22:49;11.70;;;2.92;;
56806;SDS011;42687;42.524;12.052;2023-05-21T07:25:15;6.35;;;3.30;;
56806;SDS011;42687;42.524;12.052;2023-05-21T07:27:41;5.28;;;3.20;;
56806;SDS011;42687;42.524;12.052;2023-05-21T07:30:07;5.30;;;2.75;;
56806;SDS011;42687;42.524;12.052;2023-05-21T07:32:33;2.55;;;1.98;;
56806;SDS011;42687;42.524;12.052;2023-05-21T07:34:59;5.60;;;2.58;;
56806;SDS011;42687;42.524;12.052;2023-05-21T07:37:28;3.35;;;2.45;;
56806;SDS011;42687;42.524;12.052;2023-05-21T07:39:56;4.70;;;3.42;;
56806;SDS011;42687;42.524;12.052;2023-05-21T07:42:23;6.53;;;3.08;;
56806;SDS011;42687;42.524;12.052;2023-05-21T07:44:49;5.00;;;2.63;;
56806;SDS011;42687;42.524;12.052;2023-05-21T07:47:15;4.63;;;2.75;;
56806;SDS011;42687;42.524;12.052;2023-05-21T07:49:40;4.70;;;2.83;;
56806;SDS011;42687;42.524;12.052;2023-05-21T07:52:06;3.25;;;2.63;;
56806;SDS011;42687;42.524;12.052;2023-05-21T07:54:32;4.80;;;2.67;;
56806;SDS011;42687;42.524;12.052;2023-05-21T07:56:57;8.02;;;3.03;;
56806;SDS011;42687;42.524;12.052;2023-05-21T07:59:23;6.85;;;2.97;;
56806;SDS011;42687;42.524;12.052;2023-05-21T08:01:50;6.13;;;2.92;;
56806;SDS011;42687;42.524;12.052;2023-05-21T08:04:15;3.13;;;2.28;;
56806;SDS011;42687;42.524;12.052;2023-05-21T08:06:41;4.72;;;2.53;;
56806;SDS011;42687;42.524;12.052;2023-05-21T08:09:07;4.05;;;2.50;;
56806;SDS011;42687;42.524;12.052;2023-05-21T08:11:32;6.88;;;2.53;;
56806;SDS011;42687;42.524;12.052;2023-05-21T08:13:58;4.00;;;2.35;;
56806;SDS011;42687;42.524;12.052;2023-05-21T08:16:24;3.50;;;2.33;;
56806;SDS011;42687;42.524;12.052;2023-05-21T08:18:50;7.88;;;3.42;;
56806;SDS011;42687;42.524;12.052;2023-05-21T08:21:16;5.38;;;2.45;;
56806;SDS011;42687;42.524;12.052;2023-05-21T08:23:42;3.03;;;2.15;;
56806;SDS011;42687;42.524;12.052;2023-05-21T08:26:08;4.75;;;2.88;;
56806;SDS011;42687;42.524;12.052;2023-05-21T08:28:37;3.72;;;2.20;;
56806;SDS011;42687;42.524;12.052;2023-05-21T08:31:03;5.38;;;2.97;;
56806;SDS011;42687;42.524;12.052;2023-05-21T08:33:29;4.53;;;2.78;;
56806;SDS011;42687;42.524;12.052;2023-05-21T08:35:55;3.83;;;2.72;;
56806;SDS011;42687;42.524;12.052;2023-05-21T08:38:20;3.33;;;2.38;;
56806;SDS011;42687;42.524;12.052;2023-05-21T08:40:46;3.22;;;2.42;;
56806;SDS011;42687;42.524;12.052;2023-05-21T08:43:14;2.80;;;2.28;;
56806;SDS011;42687;42.524;12.052;2023-05-21T08:45:43;5.70;;;2.63;;
56806;SDS011;42687;42.524;12.052;2023-05-21T08:48:11;4.53;;;2.40;;
56806;SDS011;42687;42.524;12.052;2023-05-21T08:50:41;5.85;;;3.63;;
56806;SDS011;42687;42.524;12.052;2023-05-21T08:53:07;4.47;;;3.05;;
56806;SDS011;42687;42.524;12.052;2023-05-21T08:55:33;3.20;;;2.30;;
56806;SDS011;42687;42.524;12.052;2023-05-21T08:58:00;5.13;;;2.17;;
56806;SDS011;42687;42.524;12.052;2023-05-21T09:00:29;6.85;;;4.07;;
56806;SDS011;42687;42.524;12.052;2023-05-21T09:02:54;4.28;;;2.63;;
56806;SDS011;42687;42.524;12.052;2023-05-21T09:05:21;3.47;;;2.90;;
56806;SDS011;42687;42.524;12.052;2023-05-21T09:08:03;6.22;;;3.00;;
56806;SDS011;42687;42.524;12.052;2023-05-21T09:10:41;4.85;;;3.13;;
56806;SDS011;42687;42.524;12.052;2023-05-21T09:13:13;2.53;;;2.22;;
56806;SDS011;42687;42.524;12.052;2023-05-21T09:15:41;4.10;;;2.90;;
56806;SDS011;42687;42.524;12.052;2023-05-21T09:18:08;6.50;;;2.28;;
56806;SDS011;42687;42.524;12.052;2023-05-21T09:20:35;3.75;;;1.90;;
56806;SDS011;42687;42.524;12.052;2023-05-21T09:23:04;6.80;;;2.58;;
56806;SDS011;42687;42.524;12.052;2023-05-21T09:25:36;3.50;;;2.30;;
56806;SDS011;42687;42.524;12.052;2023-05-21T09:28:02;3.65;;;2.78;;
56806;SDS011;42687;42.524;12.052;2023-05-21T09:30:29;7.90;;;4.32;;
56806;SDS011;42687;42.524;12.052;2023-05-21T09:32:55;5.43;;;2.58;;
56806;SDS011;42687;42.524;12.052;2023-05-21T09:35:22;7.28;;;3.25;;
56806;SDS011;42687;42.524;12.052;2023-05-21T09:37:50;3.72;;;2.50;;
56806;SDS011;42687;42.524;12.052;2023-05-21T09:40:18;4.60;;;3.00;;
56806;SDS011;42687;42.524;12.052;2023-05-21T09:42:45;5.63;;;2.78;;
56806;SDS011;42687;42.524;12.052;2023-05-21T09:47:50;6.95;;;2.90;;
56806;SDS011;42687;42.524;12.052;2023-05-21T09:50:21;2.08;;;1.83;;
56806;SDS011;42687;42.524;12.052;2023-05-21T09:52:52;3.95;;;2.47;;
56806;SDS011;42687;42.524;12.052;2023-05-21T09:55:23;4.68;;;2.67;;
56806;SDS011;42687;42.524;12.052;2023-05-21T09:57:51;4.60;;;2.65;;
56806;SDS011;42687;42.524;12.052;2023-05-21T10:00:18;5.88;;;3.50;;
56806;SDS011;42687;42.524;12.052;2023-05-21T10:03:04;5.63;;;3.33;;
56806;SDS011;42687;42.524;12.052;2023-05-21T10:05:36;5.72;;;3.08;;
56806;SDS011;42687;42.524;12.052;2023-05-21T10:08:03;5.47;;;3.70;;
56806;SDS011;42687;42.524;12.052;2023-05-21T10:10:29;2.47;;;1.80;;
56806;SDS011;42687;42.524;12.052;2023-05-21T10:13:05;8.45;;;3.45;;
56806;SDS011;42687;42.524;12.052;2023-05-21T10:15:37;4.70;;;2.40;;
56806;SDS011;42687;42.524;12.052;2023-05-21T10:18:08;5.53;;;3.22;;
56806;SDS011;42687;42.524;12.052;2023-05-21T10:20:36;7.55;;;3.97;;
56806;SDS011;42687;42.524;12.052;2023-05-21T10:23:03;3.50;;;2.72;;
56806;SDS011;42687;42.524;12.052;2023-05-21T10:25:29;8.88;;;3.78;;
56806;SDS011;42687;42.524;12.052;2023-05-21T10:27:59;6.95;;;4.70;;
56806;SDS011;42687;42.524;12.052;2023-05-21T10:30:25;5.13;;;3.25;;
56806;SDS011;42687;42.524;12.052;2023-05-21T10:32:51;4.55;;;3.05;;
56806;SDS011;42687;42.524;12.052;2023-05-21T10:35:21;4.72;;;3.05;;
56806;SDS011;42687;42.524;12.052;2023-05-21T10:37:47;11.02;;;4.53;;
56806;SDS011;42687;42.524;12.052;2023-05-21T10:40:14;5.03;;;2.92;;
56806;SDS011;42687;42.524;12.052;2023-05-21T10:45:34;5.90;;;4.00;;
56806;SDS011;42687;42.524;12.052;2023-05-21T10:51:22;3.33;;;2.65;;
56806;SDS011;42687;42.524;12.052;2023-05-21T10:59:51;5.57;;;3.70;;
56806;SDS011;42687;42.524;12.052;2023-05-21T11:02:18;5.40;;;3.58;;
56806;SDS011;42687;42.524;12.052;2023-05-21T11:04:45;4.45;;;3.10;;
56806;SDS011;42687;42.524;12.052;2023-05-21T11:07:13;6.85;;;3.47;;
56806;SDS011;42687;42.524;12.052;2023-05-21T11:09:48;3.75;;;2.47;;
56806;SDS011;42687;42.524;12.052;2023-05-21T11:12:15;3.42;;;1.80;;
56806;SDS011;42687;42.524;12.052;2023-05-21T11:14:54;8.63;;;3.70;;
56806;SDS011;42687;42.524;12.052;2023-05-21T11:17:38;3.70;;;2.33;;
56806;SDS011;42687;42.524;12.052;2023-05-21T11:20:06;5.07;;;3.80;;
56806;SDS011;42687;42.524;12.052;2023-05-21T11:22:34;4.95;;;4.10;;
56806;SDS011;42687;42.524;12.052;2023-05-21T11:25:03;6.20;;;4.07;;
56806;SDS011;42687;42.524;12.052;2023-05-21T11:27:34;5.80;;;4.00;;
56806;SDS011;42687;42.524;12.052;2023-05-21T11:30:06;4.97;;;3.28;;
56806;SDS011;42687;42.524;12.052;2023-05-21T11:35:27;7.25;;;5.13;;
56806;SDS011;42687;42.524;12.052;2023-05-21T11:37:53;12.20;;;4.93;;
56806;SDS011;42687;42.524;12.052;2023-05-21T11:40:22;5.82;;;3.55;;
56806;SDS011;42687;42.524;12.052;2023-05-21T11:42:54;5.50;;;3.78;;
56806;SDS011;42687;42.524;12.052;2023-05-21T11:45:22;7.57;;;2.28;;
56806;SDS011;42687;42.524;12.052;2023-05-21T11:47:52;5.10;;;4.05;;
56806;SDS011;42687;42.524;12.052;2023-05-21T11:50:20;11.30;;;4.07;;
56806;SDS011;42687;42.524;12.052;2023-05-21T11:52:46;6.38;;;4.20;;
56806;SDS011;42687;42.524;12.052;2023-05-21T11:55:12;6.65;;;4.55;;
56806;SDS011;42687;42.524;12.052;2023-05-21T11:57:42;6.22;;;3.80;;
56806;SDS011;42687;42.524;12.052;2023-05-21T12:00:15;7.78;;;4.10;;
56806;SDS011;42687;42.524;12.052;2023-05-21T12:02:45;6.90;;;4.28;;
56806;SDS011;42687;42.524;12.052;2023-05-21T12:05:13;5.50;;;4.10;;
56806;SDS011;42687;42.524;12.052;2023-05-21T12:07:39;5.70;;;3.78;;
56806;SDS011;42687;42.524;12.052;2023-05-21T12:10:05;9.38;;;5.13;;
56806;SDS011;42687;42.524;12.052;2023-05-21T12:12:32;5.65;;;3.60;;
56806;SDS011;42687;42.524;12.052;2023-05-21T12:14:57;5.53;;;4.22;;
56806;SDS011;42687;42.524;12.052;2023-05-21T12:17:24;5.53;;;4.75;;
56806;SDS011;42687;42.524;12.052;2023-05-21T12:19:53;7.82;;;5.93;;
56806;SDS011;42687;42.524;12.052;2023-05-21T12:22:21;8.00;;;4.43;;
56806;SDS011;42687;42.524;12.052;2023-05-21T12:24:48;6.97;;;4.47;;
56806;SDS011;42687;42.524;12.052;2023-05-21T12:27:15;8.40;;;5.53;;
56806;SDS011;42687;42.524;12.052;2023-05-21T12:29:42;7.40;;;5.20;;
56806;SDS011;42687;42.524;12.052;2023-05-21T12:32:11;9.65;;;4.65;;
56806;SDS011;42687;42.524;12.052;2023-05-21T12:37:11;6.28;;;5.13;;
56806;SDS011;42687;42.524;12.052;2023-05-21T12:40:01;8.18;;;5.13;;
56806;SDS011;42687;42.524;12.052;2023-05-21T12:42:40;6.72;;;4.40;;
56806;SDS011;42687;42.524;12.052;2023-05-21T12:45:08;9.63;;;6.03;;
56806;SDS011;42687;42.524;12.052;2023-05-21T12:47:35;8.77;;;6.57;;
56806;SDS011;42687;42.524;12.052;2023-05-21T12:50:07;9.40;;;5.43;;
56806;SDS011;42687;42.524;12.052;2023-05-21T12:52:36;8.35;;;6.00;;
56806;SDS011;42687;42.524;12.052;2023-05-21T12:55:04;7.93;;;5.63;;
56806;SDS011;42687;42.524;12.052;2023-05-21T12:57:36;8.20;;;6.20;;
56806;SDS011;42687;42.524;12.052;2023-05-21T13:00:03;7.78;;;6.18;;
56806;SDS011;42687;42.524;12.052;2023-05-21T13:02:38;7.97;;;5.13;;
56806;SDS011;42687;42.524;12.052;2023-05-21T13:05:09;9.55;;;7.47;;
56806;SDS011;42687;42.524;12.052;2023-05-21T13:07:36;10.30;;;5.80;;
56806;SDS011;42687;42.524;12.052;2023-05-21T13:10:04;8.95;;;5.25;;
56806;SDS011;42687;42.524;12.052;2023-05-21T13:12:31;7.85;;;5.63;;
56806;SDS011;42687;42.524;12.052;2023-05-21T13:14:58;9.70;;;7.40;;
56806;SDS011;42687;42.524;12.052;2023-05-21T13:17:25;10.38;;;7.65;;
56806;SDS011;42687;42.524;12.052;2023-05-21T13:20:11;8.88;;;7.35;;
56806;SDS011;42687;42.524;12.052;2023-05-21T13:22:46;12.45;;;7.25;;
56806;SDS011;42687;42.524;12.052;2023-05-21T13:25:15;7.70;;;5.70;;
56806;SDS011;42687;42.524;12.052;2023-05-21T13:27:46;9.60;;;7.07;;
56806;SDS011;42687;42.524;12.052;2023-05-21T13:30:12;6.95;;;6.18;;
56806;SDS011;42687;42.524;12.052;2023-05-21T13:32:38;6.72;;;4.60;;
56806;SDS011;42687;42.524;12.052;2023-05-21T13:35:05;9.80;;;4.97;;
56806;SDS011;42687;42.524;12.052;2023-05-21T13:37:31;8.45;;;6.25;;
56806;SDS011;42687;42.524;12.052;2023-05-21T13:40:00;7.82;;;5.53;;
56806;SDS011;42687;42.524;12.052;2023-05-21T13:42:28;8.13;;;5.88;;
56806;SDS011;42687;42.524;12.052;2023-05-21T13:44:53;6.28;;;4.40;;
56806;SDS011;42687;42.524;12.052;2023-05-21T13:47:19;6.53;;;4.22;;
56806;SDS011;42687;42.524;12.052;2023-05-21T13:49:45;7.20;;;4.47;;
56806;SDS011;42687;42.524;12.052;2023-05-21T13:52:10;6.47;;;4.90;;
56806;SDS011;42687;42.524;12.052;2023-05-21T13:54:36;4.90;;;3.90;;
56806;SDS011;42687;42.524;12.052;2023-05-21T13:57:02;7.50;;;5.88;;
56806;SDS011;42687;42.524;12.052;2023-05-21T13:59:28;4.80;;;4.25;;
56806;SDS011;42687;42.524;12.052;2023-05-21T14:01:54;8.65;;;6.15;;
56806;SDS011;42687;42.524;12.052;2023-05-21T14:04:20;6.07;;;4.78;;
56806;SDS011;42687;42.524;12.052;2023-05-21T14:06:46;8.98;;;6.68;;
56806;SDS011;42687;42.524;12.052;2023-05-21T14:09:12;8.77;;;5.82;;
56806;SDS011;42687;42.524;12.052;2023-05-21T14:11:38;9.05;;;6.10;;
56806;SDS011;42687;42.524;12.052;2023-05-21T14:14:04;9.20;;;5.47;;
56806;SDS011;42687;42.524;12.052;2023-05-21T14:16:30;7.22;;;5.75;;
56806;SDS011;42687;42.524;12.052;2023-05-21T14:18:56;8.55;;;6.47;;
56806;SDS011;42687;42.524;12.052;2023-05-21T14:21:22;8.13;;;5.50;;
56806;SDS011;42687;42.524;12.052;2023-05-21T14:23:49;7.78;;;5.60;;
56806;SDS011;42687;42.524;12.052;2023-05-21T14:26:14;8.88;;;5.90;;
56806;SDS011;42687;42.524;12.052;2023-05-21T14:28:41;9.88;;;6.57;;
56806;SDS011;42687;42.524;12.052;2023-05-21T14:31:08;7.90;;;6.63;;
56806;SDS011;42687;42.524;12.052;2023-05-21T14:33:34;8.27;;;7.22;;
56806;SDS011;42687;42.524;12.052;2023-05-21T14:36:01;6.50;;;5.32;;
56806;SDS011;42687;42.524;12.052;2023-05-21T14:38:28;10.88;;;6.80;;
56806;SDS011;42687;42.524;12.052;2023-05-21T14:40:54;8.77;;;7.05;;
56806;SDS011;42687;42.524;12.052;2023-05-21T14:43:19;7.00;;;5.13;;
56806;SDS011;42687;42.524;12.052;2023-05-21T14:45:45;9.32;;;6.35;;
56806;SDS011;42687;42.524;12.052;2023-05-21T14:48:11;8.88;;;4.40;;
56806;SDS011;42687;42.524;12.052;2023-05-21T14:50:38;6.28;;;4.85;;
56806;SDS011;42687;42.524;12.052;2023-05-21T14:53:08;8.63;;;4.65;;
56806;SDS011;42687;42.524;12.052;2023-05-21T14:55:35;7.13;;;5.75;;
56806;SDS011;42687;42.524;12.052;2023-05-21T14:58:02;8.75;;;4.80;;